sensor_id;sensor_type;location;lat;lon;timestamp;temperature;humidity
20566;DHT22;10441;50.884;12.064;2022-10-31T08:29:21;17.30;1.00
20566;DHT22;10441;50.884;12.064;2022-10-31T08:31:48;17.50;1.00
20566;DHT22;10441;50.884;12.064;2022-10-31T08:34:15;17.60;1.00
20566;DHT22;10441;50.884;12.064;2022-10-31T08:36:43;17.40;1.00
20566;DHT22;10441;50.884;12.064;2022-10-31T08:39:16;18.20;1.00
20566;DHT22;10441;50.884;12.064;2022-10-31T08:41:45;18.50;1.00
20566;DHT22;10441;50.884;12.064;2022-10-31T08:44:12;18.80;1.00
20566;DHT22;10441;50.884;12.064;2022-10-31T08:46:42;18.50;1.00
20566;DHT22;10441;50.884;12.064;2022-10-31T08:49:13;18.80;1.00
20566;DHT22;10441;50.884;12.064;2022-10-31T08:52:00;18.70;1.00
20566;DHT22;10441;50.884;12.064;2022-10-31T08:54:45;19.40;1.00
20566;DHT22;10441;50.884;12.064;2022-10-31T08:57:11;20.30;1.00
20566;DHT22;10441;50.884;12.064;2022-10-31T08:59:38;20.50;1.00
20566;DHT22;10441;50.884;12.064;2022-10-31T09:02:07;20.10;1.00
20566;DHT22;10441;50.884;12.064;2022-10-31T09:04:34;19.90;1.00
20566;DHT22;10441;50.884;12.064;2022-10-31T09:07:01;21.10;1.00
20566;DHT22;10441;50.884;12.064;2022-10-31T09:09:28;21.00;1.00
20566;DHT22;10441;50.884;12.064;2022-10-31T09:11:55;22.00;1.00
20566;DHT22;10441;50.884;12.064;2022-10-31T09:14:22;21.90;1.00
20566;DHT22;10441;50.884;12.064;2022-10-31T09:16:49;21.40;1.00
20566;DHT22;10441;50.884;12.064;2022-10-31T09:19:17;21.70;1.00
20566;DHT22;10441;50.884;12.064;2022-10-31T09:21:44;21.60;99.90
20566;DHT22;10441;50.884;12.064;2022-10-31T09:24:10;21.40;1.00
20566;DHT22;10441;50.884;12.064;2022-10-31T09:26:38;22.00;1.00
20566;DHT22;10441;50.884;12.064;2022-10-31T09:29:04;22.50;1.00
20566;DHT22;10441;50.884;12.064;2022-10-31T09:31:31;21.60;99.90
20566;DHT22;10441;50.884;12.064;2022-10-31T09:33:58;21.10;99.90
20566;DHT22;10441;50.884;12.064;2022-10-31T09:36:26;21.00;1.00
20566;DHT22;10441;50.884;12.064;2022-10-31T09:38:53;21.90;1.00
20566;DHT22;10441;50.884;12.064;2022-10-31T09:41:22;22.30;99.90
20566;DHT22;10441;50.884;12.064;2022-10-31T09:43:53;22.20;99.90
20566;DHT22;10441;50.884;12.064;2022-10-31T09:46:22;22.30;99.90
20566;DHT22;10441;50.884;12.064;2022-10-31T09:48:54;22.00;99.90
20566;DHT22;10441;50.884;12.064;2022-10-31T09:51:28;21.40;99.90
20566;DHT22;10441;50.884;12.064;2022-10-31T09:53:58;23.10;99.90
20566;DHT22;10441;50.884;12.064;2022-10-31T09:56:26;22.70;99.90
20566;DHT22;10441;50.884;12.064;2022-10-31T09:58:54;23.50;99.90
20566;DHT22;10441;50.884;12.064;2022-10-31T10:01:28;24.20;99.90
20566;DHT22;10441;50.884;12.064;2022-10-31T10:03:57;23.80;99.90
20566;DHT22;10441;50.884;12.064;2022-10-31T10:06:27;22.30;99.90
20566;DHT22;10441;50.884;12.064;2022-10-31T10:08:55;21.10;99.90
20566;DHT22;10441;50.884;12.064;2022-10-31T10:11:26;20.60;99.90
20566;DHT22;10441;50.884;12.064;2022-10-31T10:14:04;21.30;99.90
20566;DHT22;10441;50.884;12.064;2022-10-31T10:16:38;21.90;99.90
20566;DHT22;10441;50.884;12.064;2022-10-31T10:19:18;20.70;99.90
20566;DHT22;10441;50.884;12.064;2022-10-31T10:21:51;20.90;99.90
20566;DHT22;10441;50.884;12.064;2022-10-31T10:24:22;22.60;99.90
20566;DHT22;10441;50.884;12.064;2022-10-31T10:26:53;22.00;99.90
20566;DHT22;10441;50.884;12.064;2022-10-31T10:29:28;20.60;99.90
20566;DHT22;10441;50.884;12.064;2022-10-31T10:32:00;20.00;99.90
20566;DHT22;10441;50.884;12.064;2022-10-31T10:34:29;19.50;99.90
20566;DHT22;10441;50.884;12.064;2022-10-31T10:37:04;18.90;1.00
20566;DHT22;10441;50.884;12.064;2022-10-31T10:39:38;19.10;1.00
20566;DHT22;10441;50.884;12.064;2022-10-31T10:42:10;18.80;1.00
20566;DHT22;10441;50.884;12.064;2022-10-31T10:44:56;19.60;1.00
20566;DHT22;10441;50.884;12.064;2022-10-31T10:47:42;19.50;1.00
20566;DHT22;10441;50.884;12.064;2022-10-31T10:50:13;19.60;1.00
20566;DHT22;10441;50.884;12.064;2022-10-31T10:52:45;20.40;1.00
20566;DHT22;10441;50.884;12.064;2022-10-31T10:55:14;19.50;1.00
20566;DHT22;10441;50.884;12.064;2022-10-31T10:57:46;19.50;1.00
20566;DHT22;10441;50.884;12.064;2022-10-31T11:00:21;19.20;1.00
20566;DHT22;10441;50.884;12.064;2022-10-31T11:02:50;19.20;1.00
20566;DHT22;10441;50.884;12.064;2022-10-31T11:05:22;19.90;1.00
20566;DHT22;10441;50.884;12.064;2022-10-31T11:07:51;19.90;1.00
20566;DHT22;10441;50.884;12.064;2022-10-31T11:10:18;20.00;1.00
20566;DHT22;10441;50.884;12.064;2022-10-31T11:12:45;20.40;1.00
20566;DHT22;10441;50.884;12.064;2022-10-31T11:15:24;19.80;1.00
20566;DHT22;10441;50.884;12.064;2022-10-31T11:17:52;20.60;1.00
20566;DHT22;10441;50.884;12.064;2022-10-31T11:20:24;20.30;1.00
20566;DHT22;10441;50.884;12.064;2022-10-31T11:23:02;21.00;1.00
20566;DHT22;10441;50.884;12.064;2022-10-31T11:25:29;21.00;1.00
20566;DHT22;10441;50.884;12.064;2022-10-31T11:27:59;20.80;1.00
20566;DHT22;10441;50.884;12.064;2022-10-31T11:30:26;20.90;99.90
20566;DHT22;10441;50.884;12.064;2022-10-31T11:32:54;20.90;1.00
20566;DHT22;10441;50.884;12.064;2022-10-31T11:35:21;21.40;99.90
20566;DHT22;10441;50.884;12.064;2022-10-31T11:37:49;21.10;99.90
20566;DHT22;10441;50.884;12.064;2022-10-31T11:40:24;21.10;99.90
20566;DHT22;10441;50.884;12.064;2022-10-31T11:42:54;20.40;99.90
20566;DHT22;10441;50.884;12.064;2022-10-31T11:45:27;20.60;99.90
20566;DHT22;10441;50.884;12.064;2022-10-31T11:47:56;21.50;99.90
20566;DHT22;10441;50.884;12.064;2022-10-31T11:50:24;20.60;99.90
20566;DHT22;10441;50.884;12.064;2022-10-31T11:52:53;21.70;99.90
20566;DHT22;10441;50.884;12.064;2022-10-31T11:55:34;20.80;99.90
20566;DHT22;10441;50.884;12.064;2022-10-31T11:58:02;21.10;99.90
20566;DHT22;10441;50.884;12.064;2022-10-31T12:00:30;20.50;1.00
20566;DHT22;10441;50.884;12.064;2022-10-31T12:03:13;21.20;99.90
20566;DHT22;10441;50.884;12.064;2022-10-31T12:05:42;20.10;99.90
20566;DHT22;10441;50.884;12.064;2022-10-31T12:08:11;20.10;1.00
20566;DHT22;10441;50.884;12.064;2022-10-31T12:10:48;20.70;1.00
20566;DHT22;10441;50.884;12.064;2022-10-31T12:13:21;20.60;99.90
20566;DHT22;10441;50.884;12.064;2022-10-31T12:15:53;20.20;1.00
20566;DHT22;10441;50.884;12.064;2022-10-31T12:18:30;20.50;99.90
20566;DHT22;10441;50.884;12.064;2022-10-31T12:21:03;20.00;1.00
20566;DHT22;10441;50.884;12.064;2022-10-31T12:23:37;20.20;99.90
20566;DHT22;10441;50.884;12.064;2022-10-31T12:26:11;20.00;1.00
20566;DHT22;10441;50.884;12.064;2022-10-31T12:28:46;20.30;1.00
20566;DHT22;10441;50.884;12.064;2022-10-31T12:31:20;19.80;1.00
20566;DHT22;10441;50.884;12.064;2022-10-31T12:33:52;19.60;1.00
20566;DHT22;10441;50.884;12.064;2022-10-31T12:39:14;20.40;1.00
20566;DHT22;10441;50.884;12.064;2022-10-31T12:41:50;20.00;1.00
20566;DHT22;10441;50.884;12.064;2022-10-31T12:44:33;19.60;1.00
20566;DHT22;10441;50.884;12.064;2022-10-31T12:47:11;20.00;1.00
20566;DHT22;10441;50.884;12.064;2022-10-31T12:49:46;19.90;1.00
20566;DHT22;10441;50.884;12.064;2022-10-31T12:52:23;20.30;1.00
20566;DHT22;10441;50.884;12.064;2022-10-31T12:54:55;19.90;1.00
20566;DHT22;10441;50.884;12.064;2022-10-31T12:57:29;20.00;1.00
20566;DHT22;10441;50.884;12.064;2022-10-31T12:59:59;20.20;1.00
20566;DHT22;10441;50.884;12.064;2022-10-31T13:02:29;20.30;1.00
20566;DHT22;10441;50.884;12.064;2022-10-31T13:04:58;20.10;1.00
20566;DHT22;10441;50.884;12.064;2022-10-31T13:07:28;20.30;1.00
20566;DHT22;10441;50.884;12.064;2022-10-31T13:09:57;21.00;1.00
20566;DHT22;10441;50.884;12.064;2022-10-31T13:12:25;20.30;1.00
20566;DHT22;10441;50.884;12.064;2022-10-31T13:14:56;19.80;1.00
20566;DHT22;10441;50.884;12.064;2022-10-31T13:17:27;19.50;1.00
20566;DHT22;10441;50.884;12.064;2022-10-31T13:19:56;19.50;1.00
20566;DHT22;10441;50.884;12.064;2022-10-31T13:22:27;19.20;1.00
20566;DHT22;10441;50.884;12.064;2022-10-31T13:24:59;19.30;1.00
20566;DHT22;10441;50.884;12.064;2022-10-31T13:27:28;19.50;1.00
20566;DHT22;10441;50.884;12.064;2022-10-31T13:30:00;19.40;1.00
20566;DHT22;10441;50.884;12.064;2022-10-31T18:26:23;12.30;1.00
20566;DHT22;10441;50.884;12.064;2022-10-31T18:28:50;12.30;1.00
20566;DHT22;10441;50.884;12.064;2022-10-31T18:31:17;12.20;1.00
20566;DHT22;10441;50.884;12.064;2022-10-31T18:33:45;12.20;1.00
20566;DHT22;10441;50.884;12.064;2022-10-31T18:36:14;12.30;1.00
20566;DHT22;10441;50.884;12.064;2022-10-31T18:38:42;12.20;1.00
20566;DHT22;10441;50.884;12.064;2022-10-31T18:41:10;12.10;1.00
20566;DHT22;10441;50.884;12.064;2022-10-31T18:43:39;12.10;1.00
20566;DHT22;10441;50.884;12.064;2022-10-31T18:46:07;12.20;1.00
20566;DHT22;10441;50.884;12.064;2022-10-31T18:48:35;12.20;1.00
20566;DHT22;10441;50.884;12.064;2022-10-31T18:51:02;12.10;1.00
20566;DHT22;10441;50.884;12.064;2022-10-31T18:53:29;12.10;1.00
20566;DHT22;10441;50.884;12.064;2022-10-31T18:55:58;12.10;1.00
20566;DHT22;10441;50.884;12.064;2022-10-31T18:58:31;12.10;1.00
20566;DHT22;10441;50.884;12.064;2022-10-31T19:01:03;12.10;1.00
20566;DHT22;10441;50.884;12.064;2022-10-31T19:03:32;12.10;1.00
20566;DHT22;10441;50.884;12.064;2022-10-31T19:05:59;12.10;1.00
20566;DHT22;10441;50.884;12.064;2022-10-31T19:08:27;12.00;1.00
20566;DHT22;10441;50.884;12.064;2022-10-31T19:10:54;12.10;1.00
20566;DHT22;10441;50.884;12.064;2022-10-31T19:13:21;12.20;1.00
20566;DHT22;10441;50.884;12.064;2022-10-31T19:15:49;12.20;1.00
20566;DHT22;10441;50.884;12.064;2022-10-31T19:18:18;12.00;1.00
20566;DHT22;10441;50.884;12.064;2022-10-31T19:20:45;11.90;1.00
20566;DHT22;10441;50.884;12.064;2022-10-31T19:23:11;11.80;1.00
20566;DHT22;10441;50.884;12.064;2022-10-31T19:25:39;11.70;1.00
20566;DHT22;10441;50.884;12.064;2022-10-31T20:28:46;10.60;99.90
20566;DHT22;10441;50.884;12.064;2022-10-31T20:31:14;10.70;99.90
20566;DHT22;10441;50.884;12.064;2022-10-31T20:33:41;10.70;99.90
20566;DHT22;10441;50.884;12.064;2022-10-31T20:36:09;10.70;99.90
20566;DHT22;10441;50.884;12.064;2022-10-31T20:38:36;10.70;99.90
20566;DHT22;10441;50.884;12.064;2022-10-31T20:41:03;10.60;99.90
20566;DHT22;10441;50.884;12.064;2022-10-31T20:43:31;10.50;99.90
20566;DHT22;10441;50.884;12.064;2022-10-31T22:47:15;9.50;99.90
20566;DHT22;10441;50.884;12.064;2022-10-31T22:49:42;9.60;99.90
20566;DHT22;10441;50.884;12.064;2022-10-31T22:52:09;9.50;99.90
20566;DHT22;10441;50.884;12.064;2022-10-31T22:54:35;9.50;99.90
20566;DHT22;10441;50.884;12.064;2022-10-31T22:57:02;9.40;99.90
20566;DHT22;10441;50.884;12.064;2022-10-31T22:59:29;9.30;99.90
20566;DHT22;10441;50.884;12.064;2022-10-31T23:01:56;9.40;99.90
20566;DHT22;10441;50.884;12.064;2022-10-31T23:04:24;9.50;99.90
20566;DHT22;10441;50.884;12.064;2022-10-31T23:06:51;9.60;99.90
20566;DHT22;10441;50.884;12.064;2022-10-31T23:09:17;9.40;99.90
20566;DHT22;10441;50.884;12.064;2022-10-31T23:11:45;9.30;99.90
20566;DHT22;10441;50.884;12.064;2022-10-31T23:14:12;9.10;99.90
20566;DHT22;10441;50.884;12.064;2022-10-31T23:16:41;9.30;99.90
20566;DHT22;10441;50.884;12.064;2022-10-31T23:19:09;9.50;99.90
20566;DHT22;10441;50.884;12.064;2022-10-31T23:21:38;9.40;99.90
20566;DHT22;10441;50.884;12.064;2022-10-31T23:24:19;9.40;99.90
20566;DHT22;10441;50.884;12.064;2022-10-31T23:26:46;9.30;99.90
20566;DHT22;10441;50.884;12.064;2022-10-31T23:29:32;9.30;99.90
20566;DHT22;10441;50.884;12.064;2022-10-31T23:31:59;9.20;99.90
20566;DHT22;10441;50.884;12.064;2022-10-31T23:34:26;9.30;99.90
20566;DHT22;10441;50.884;12.064;2022-10-31T23:36:54;9.10;99.90
20566;DHT22;10441;50.884;12.064;2022-10-31T23:39:21;9.20;99.90
20566;DHT22;10441;50.884;12.064;2022-10-31T23:41:47;9.10;99.90
20566;DHT22;10441;50.884;12.064;2022-10-31T23:44:14;8.90;99.90
20566;DHT22;10441;50.884;12.064;2022-10-31T23:46:41;9.00;99.90
20566;DHT22;10441;50.884;12.064;2022-10-31T23:49:08;9.00;99.90
20566;DHT22;10441;50.884;12.064;2022-10-31T23:51:35;9.00;99.90
20566;DHT22;10441;50.884;12.064;2022-10-31T23:54:03;8.10;99.90
20566;DHT22;10441;50.884;12.064;2022-10-31T23:56:30;9.30;99.90
20566;DHT22;10441;50.884;12.064;2022-10-31T23:58:57;9.10;99.90
